createdAt,value
2022-12-23T00:00:05.165Z,21.15
2022-12-23T00:05:01.548Z,29.63
2022-12-23T00:09:58.597Z,29.83
2022-12-23T00:15:06.865Z,42.75
2022-12-23T00:20:04.691Z,37.67
2022-12-23T00:25:01.033Z,45.67
2022-12-23T00:29:57.391Z,41.92
2022-12-23T00:34:53.740Z,44.75
2022-12-23T00:40:08.859Z,50.95
2022-12-23T00:45:15.466Z,50.53
2022-12-23T00:50:12.092Z,56.67
2022-12-23T00:55:08.635Z,53.08
2022-12-23T01:00:05.491Z,53.08
2022-12-23T01:05:20.436Z,55.40
2022-12-23T01:10:16.762Z,45.80
2022-12-23T01:15:13.082Z,43.10
2022-12-23T01:20:09.900Z,47.28
2022-12-23T01:25:06.696Z,49.85
2022-12-23T01:30:03.914Z,40.35
2022-12-23T01:35:00.257Z,53.53
2022-12-23T01:39:57.668Z,46.95
2022-12-23T01:45:14.024Z,49.20
2022-12-23T01:50:19.328Z,49.80
2022-12-23T01:55:20.736Z,49.13
2022-12-23T02:00:35.815Z,49.65
2022-12-23T02:05:32.424Z,51.72
2022-12-23T02:10:41.640Z,50.80
2022-12-23T02:16:06.700Z,55.90
2022-12-23T02:21:27.465Z,46.55
2022-12-23T02:26:33.043Z,47.95
2022-12-23T02:31:42.894Z,51.53
2022-12-23T02:36:59.935Z,53.50
2022-12-23T02:42:05.134Z,55.42
2022-12-23T02:47:10.811Z,56.63
2022-12-23T02:52:13.648Z,61.70
2022-12-23T02:57:12.789Z,60.55
2022-12-23T03:02:09.359Z,58.33
2022-12-23T03:07:08.138Z,63.75
2022-12-23T03:12:17.112Z,58.83
2022-12-23T03:22:35.107Z,54.03
2022-12-23T03:27:39.052Z,69.05
2022-12-23T03:32:58.312Z,62.15
2022-12-23T03:37:55.844Z,66.20
2022-12-23T03:43:01.115Z,58.92
2022-12-23T03:48:04.949Z,59.33
2022-12-23T03:53:12.413Z,51.00
2022-12-23T03:58:20.028Z,57.70
2022-12-23T04:03:25.346Z,35.17
2022-12-23T04:08:34.584Z,47.15
2022-12-23T04:13:31.519Z,48.50
2022-12-23T04:18:28.837Z,41.97
2022-12-23T04:23:25.197Z,41.45
2022-12-23T04:28:21.550Z,41.00
2022-12-23T04:33:17.951Z,40.70
2022-12-23T04:38:14.300Z,37.97
2022-12-23T04:43:10.655Z,42.58
2022-12-23T04:48:07.042Z,38.35
2022-12-23T04:53:03.365Z,36.83
2022-12-23T04:57:59.706Z,33.00
2022-12-23T05:02:56.238Z,30.83
2022-12-23T05:08:03.082Z,29.73
2022-12-23T05:12:59.486Z,36.00
2022-12-23T05:17:55.822Z,29.13
2022-12-23T05:22:52.181Z,35.33
2022-12-23T05:27:48.500Z,43.47
2022-12-23T05:32:44.888Z,35.00
2022-12-23T05:37:41.238Z,24.67
2022-12-23T05:42:37.597Z,28.73
2022-12-23T05:47:34.396Z,28.08
2022-12-23T05:52:30.813Z,29.35
2022-12-23T05:57:27.277Z,32.50
2022-12-23T06:02:24.087Z,25.58
2022-12-23T06:07:20.590Z,22.65
2022-12-23T06:12:16.937Z,17.42
2022-12-23T06:17:13.411Z,21.90
2022-12-23T06:22:09.856Z,23.75
2022-12-23T06:27:06.425Z,23.17
2022-12-23T06:32:03.116Z,26.75
2022-12-23T06:36:59.714Z,26.83
2022-12-23T06:41:56.117Z,30.35
2022-12-23T06:46:52.489Z,34.35
2022-12-23T06:51:48.849Z,36.90
2022-12-23T06:56:45.473Z,36.92
2022-12-23T07:01:41.967Z,41.70
2022-12-23T07:06:39.534Z,40.63
2022-12-23T07:11:35.909Z,46.70
2022-12-23T07:16:32.369Z,35.58
2022-12-23T07:21:30.058Z,34.03
2022-12-23T07:26:26.690Z,38.85
2022-12-23T07:31:23.575Z,31.13
2022-12-23T07:36:20.019Z,32.13
2022-12-23T07:41:16.432Z,34.85
2022-12-23T07:46:12.962Z,36.67
2022-12-23T07:51:09.643Z,44.45
2022-12-23T07:56:06.221Z,42.40
2022-12-23T08:01:05.202Z,42.05
2022-12-23T08:06:12.300Z,44.80
2022-12-23T08:11:10.623Z,45.15
2022-12-23T08:16:07.725Z,46.83
2022-12-23T08:21:07.595Z,40.45
2022-12-23T08:26:09.440Z,48.17
2022-12-23T08:31:18.889Z,48.75
2022-12-23T08:36:23.398Z,50.10
2022-12-23T08:41:26.079Z,59.28
2022-12-23T08:46:23.765Z,55.88
2022-12-23T08:51:22.027Z,53.50
2022-12-23T08:56:21.967Z,47.72
2022-12-23T09:01:20.707Z,51.97
2022-12-23T09:06:29.546Z,54.58
2022-12-23T09:11:28.512Z,62.55
2022-12-23T09:16:25.175Z,55.72
2022-12-23T09:21:23.392Z,56.75
2022-12-23T09:26:25.824Z,50.38
2022-12-23T09:31:23.063Z,45.80
2022-12-23T09:36:20.694Z,47.15
2022-12-23T09:41:38.248Z,43.60
2022-12-23T09:46:42.874Z,46.17
2022-12-23T09:51:39.384Z,43.67
2022-12-23T09:56:54.829Z,44.08
2022-12-23T10:02:20.684Z,40.55
2022-12-23T10:07:41.019Z,39.50
2022-12-23T10:12:42.908Z,44.08
2022-12-23T10:17:41.919Z,44.55
2022-12-23T10:22:44.169Z,44.83
2022-12-23T10:27:42.789Z,45.28
2022-12-23T10:33:19.884Z,40.92
2022-12-23T10:38:28.116Z,40.42
2022-12-23T10:43:46.076Z,39.25
2022-12-23T10:49:12.075Z,36.10
2022-12-23T10:54:18.467Z,33.15
2022-12-23T10:59:17.658Z,31.65
2022-12-23T11:04:18.153Z,30.42
2022-12-23T11:09:24.219Z,32.17
2022-12-23T11:14:40.261Z,29.25
2022-12-23T11:19:37.673Z,33.15
2022-12-23T11:24:39.595Z,26.38
2022-12-23T11:29:44.187Z,27.55
2022-12-23T11:34:45.714Z,26.13
2022-12-23T11:39:46.137Z,24.88
2022-12-23T11:44:47.097Z,25.88
2022-12-23T11:49:52.082Z,22.00
2022-12-23T11:54:59.877Z,23.60
2022-12-23T12:00:00.024Z,29.38
2022-12-23T12:05:01.835Z,25.73
2022-12-23T12:10:01.265Z,24.73
2022-12-23T12:15:00.206Z,23.98
2022-12-23T12:20:10.489Z,19.15
2022-12-23T12:25:20.914Z,21.75
2022-12-23T12:30:20.513Z,25.02
2022-12-23T12:35:20.112Z,25.08
2022-12-23T12:40:38.739Z,23.38
2022-12-23T12:45:45.851Z,22.48
2022-12-23T12:51:01.099Z,23.67
2022-12-23T12:56:05.418Z,22.70
2022-12-23T13:01:16.985Z,22.50
2022-12-23T13:06:21.446Z,22.58
2022-12-23T13:11:44.975Z,22.10
2022-12-23T13:17:03.611Z,22.17
2022-12-23T13:22:08.530Z,22.08
2022-12-23T13:27:11.954Z,26.98
2022-12-23T13:32:21.719Z,21.42
2022-12-23T13:37:32.342Z,23.92
2022-12-23T13:42:35.260Z,19.75
2022-12-23T13:48:04.327Z,24.65
2022-12-23T13:53:21.622Z,25.83
2022-12-23T13:58:24.424Z,21.48
2022-12-23T14:03:24.937Z,22.63
2022-12-23T14:08:26.022Z,22.58
2022-12-23T14:13:40.456Z,23.52
2022-12-23T14:19:04.832Z,25.10
2022-12-23T14:24:29.595Z,20.45
2022-12-23T14:29:42.416Z,22.35
2022-12-23T14:35:17.458Z,24.52
2022-12-23T14:40:53.103Z,23.70
2022-12-23T14:45:54.633Z,27.45
2022-12-23T14:51:13.581Z,25.77
2022-12-23T14:56:14.291Z,29.13
2022-12-23T15:01:15.351Z,26.02
2022-12-23T15:06:17.541Z,27.23
2022-12-23T15:11:25.462Z,28.45
2022-12-23T15:16:30.411Z,23.98
2022-12-23T15:21:33.750Z,26.15
2022-12-23T15:26:32.602Z,24.85
2022-12-23T15:31:35.940Z,29.38
2022-12-23T15:36:36.187Z,24.75
2022-12-23T15:41:41.829Z,26.35
2022-12-23T15:46:40.410Z,24.13
2022-12-23T15:57:03.130Z,22.73
2022-12-23T16:02:32.079Z,25.13
2022-12-23T16:07:39.652Z,23.35
2022-12-23T16:12:43.512Z,22.58
2022-12-23T16:17:40.084Z,23.98
2022-12-23T16:22:37.813Z,21.80
2022-12-23T16:27:41.132Z,22.47
2022-12-23T16:32:47.465Z,28.17
2022-12-23T16:37:47.585Z,25.85
2022-12-23T16:42:47.316Z,23.17
2022-12-23T16:47:44.696Z,24.35
2022-12-23T16:52:41.239Z,17.85
2022-12-23T16:57:38.652Z,16.17
2022-12-23T17:02:35.529Z,15.05
2022-12-23T17:07:31.914Z,17.50
2022-12-23T17:12:28.413Z,18.85
2022-12-23T17:17:25.927Z,13.10
2022-12-23T17:22:22.368Z,10.70
2022-12-23T17:27:20.652Z,10.07
2022-12-23T17:32:18.708Z,12.55
2022-12-23T17:37:20.361Z,9.23
2022-12-23T17:42:25.184Z,11.18
2022-12-23T17:47:22.634Z,9.27
2022-12-23T17:52:21.381Z,15.45
2022-12-23T17:57:20.659Z,13.02
2022-12-23T18:02:35.201Z,9.15
2022-12-23T18:07:31.584Z,7.22
2022-12-23T18:12:35.721Z,7.78
2022-12-23T18:17:32.091Z,7.35
2022-12-23T18:22:28.426Z,6.40
2022-12-23T18:27:24.808Z,6.15
2022-12-23T18:32:24.877Z,11.35
2022-12-23T18:37:23.633Z,10.82
2022-12-23T18:42:20.356Z,9.00
2022-12-23T18:47:16.810Z,9.77
2022-12-23T18:52:13.117Z,8.85
2022-12-23T18:57:10.558Z,8.27
2022-12-23T19:02:09.533Z,8.07
2022-12-23T19:07:06.428Z,11.20
2022-12-23T19:12:03.745Z,8.95
2022-12-23T19:17:00.945Z,12.88
2022-12-23T19:21:57.819Z,15.20
2022-12-23T19:26:54.129Z,16.60
2022-12-23T19:31:50.462Z,11.18
2022-12-23T19:36:46.775Z,14.75
2022-12-23T19:41:43.308Z,13.30
2022-12-23T19:46:39.673Z,15.75
2022-12-23T19:51:36.239Z,23.58
2022-12-23T19:56:32.653Z,32.10
2022-12-23T20:01:29.090Z,33.08
2022-12-23T20:06:28.650Z,33.63
2022-12-23T20:11:26.144Z,41.83
2022-12-23T20:16:23.269Z,43.08
2022-12-23T20:21:20.185Z,49.38
2022-12-23T20:26:17.911Z,55.35
2022-12-23T20:31:23.122Z,51.13
2022-12-23T20:36:22.893Z,53.67
2022-12-23T20:41:22.666Z,55.45
2022-12-23T20:46:19.956Z,62.63
2022-12-23T20:51:19.891Z,63.03
2022-12-23T20:56:17.817Z,58.47
2022-12-23T21:01:14.618Z,59.90
2022-12-23T21:06:10.928Z,55.35
2022-12-23T21:11:07.387Z,58.00
2022-12-23T21:16:06.406Z,53.28
2022-12-23T21:21:04.951Z,46.45
2022-12-23T21:31:07.569Z,40.28
2022-12-23T21:36:05.086Z,43.78
2022-12-23T21:41:07.554Z,48.88
2022-12-23T21:46:12.345Z,33.50
2022-12-23T21:51:13.032Z,42.75
2022-12-23T21:56:12.795Z,33.92
2022-12-23T22:01:17.168Z,29.70
2022-12-23T22:06:25.484Z,24.33
2022-12-23T22:11:25.888Z,31.63
2022-12-23T22:16:24.065Z,33.67
2022-12-23T22:21:23.227Z,27.23
2022-12-23T22:26:26.156Z,28.15
2022-12-23T22:31:31.724Z,33.90
2022-12-23T22:36:28.487Z,19.20
2022-12-23T22:41:27.812Z,32.85
2022-12-23T22:46:24.650Z,22.50
2022-12-23T22:51:23.978Z,22.10
2022-12-23T22:56:21.991Z,23.98
2022-12-23T23:01:30.044Z,28.73
2022-12-23T23:06:29.248Z,29.45
2022-12-23T23:11:26.840Z,25.67
2022-12-23T23:16:24.756Z,20.27
2022-12-23T23:21:21.922Z,20.52
2022-12-23T23:26:19.403Z,13.82
2022-12-23T23:36:32.434Z,12.35
2022-12-23T23:41:28.774Z,12.80
2022-12-23T23:46:25.243Z,10.25
2022-12-23T23:51:21.668Z,6.28
2022-12-23T23:56:23.786Z,8.95
